createdAt,value
2022-08-08T00:00:52.731Z,75.50
2022-08-08T00:03:47.512Z,76.50
2022-08-08T00:06:41.608Z,76.16
2022-08-08T00:09:33.140Z,75.74
2022-08-08T00:12:10.093Z,75.58
2022-08-08T00:15:01.144Z,75.77
2022-08-08T00:18:03.023Z,76.50
2022-08-08T00:20:51.377Z,76.68
2022-08-08T00:23:47.364Z,76.32
2022-08-08T00:26:29.616Z,76.05
2022-08-08T00:29:03.467Z,75.97
2022-08-08T00:32:21.371Z,76.35
2022-08-08T00:35:15.352Z,76.52
2022-08-08T00:38:30.936Z,76.85
2022-08-08T00:41:54.613Z,77.42
2022-08-08T00:44:27.360Z,77.30
2022-08-08T00:47:19.578Z,77.17
2022-08-08T00:50:08.213Z,77.86
2022-08-08T00:52:44.818Z,76.98
2022-08-08T00:55:53.901Z,77.86
2022-08-08T00:58:54.673Z,77.48
2022-08-08T01:02:01.560Z,77.57
2022-08-08T01:04:31.438Z,78.39
2022-08-08T01:07:17.600Z,77.77
2022-08-08T01:10:12.213Z,78.52
2022-08-08T01:13:15.616Z,78.98
2022-08-08T01:16:20.941Z,78.89
2022-08-08T01:19:25.334Z,78.30
2022-08-08T01:22:41.209Z,78.98
2022-08-08T01:25:40.681Z,78.62
2022-08-08T01:28:44.434Z,78.45
2022-08-08T01:32:13.159Z,78.31
2022-08-08T01:34:46.314Z,78.22
2022-08-08T01:37:57.513Z,78.15
2022-08-08T01:40:34.555Z,77.92
2022-08-08T01:43:34.741Z,77.96
2022-08-08T01:46:27.159Z,78.56
2022-08-08T01:48:59.115Z,79.20
2022-08-08T01:52:43.606Z,78.41
2022-08-08T01:55:25.863Z,78.42
2022-08-08T01:58:13.220Z,78.34
2022-08-08T02:00:48.300Z,78.34
2022-08-08T02:03:55.984Z,78.12
2022-08-08T02:06:45.329Z,77.85
2022-08-08T02:10:02.020Z,77.75
2022-08-08T02:12:33.094Z,77.87
2022-08-08T02:15:12.525Z,77.46
2022-08-08T02:17:56.909Z,77.99
2022-08-08T02:21:13.378Z,77.25
2022-08-08T02:23:49.093Z,76.92
2022-08-08T02:26:32.184Z,77.87
2022-08-08T02:29:14.862Z,77.58
2022-08-08T02:32:10.756Z,77.13
2022-08-08T02:35:10.805Z,76.73
2022-08-08T02:38:00.183Z,76.97
2022-08-08T02:42:04.261Z,77.62
2022-08-08T02:44:38.391Z,77.06
2022-08-08T02:47:47.147Z,77.06
2022-08-08T02:50:47.353Z,77.20
2022-08-08T02:53:50.695Z,77.70
2022-08-08T02:56:20.023Z,77.88
2022-08-08T02:59:26.061Z,77.66
2022-08-08T03:02:20.495Z,77.47
2022-08-08T03:05:23.133Z,78.55
2022-08-08T03:08:08.181Z,79.16
2022-08-08T03:11:05.321Z,79.48
2022-08-08T03:15:57.190Z,78.91
2022-08-08T03:17:01.578Z,79.23
2022-08-08T03:20:03.489Z,79.37
2022-08-08T03:22:38.270Z,78.84
2022-08-08T03:25:18.101Z,78.78
2022-08-08T03:27:56.616Z,79.18
2022-08-08T03:30:24.297Z,79.30
2022-08-08T03:33:56.041Z,78.55
2022-08-08T03:35:57.846Z,79.05
2022-08-08T03:38:55.821Z,79.01
2022-08-08T03:42:12.678Z,79.73
2022-08-08T03:43:59.595Z,79.37
2022-08-08T03:46:32.563Z,79.36
2022-08-08T03:49:38.198Z,79.50
2022-08-08T03:51:56.012Z,79.75
2022-08-08T03:54:52.366Z,79.70
2022-08-08T03:58:30.194Z,79.76
2022-08-08T04:00:07.752Z,79.44
2022-08-08T04:02:47.392Z,79.96
2022-08-08T04:05:19.373Z,80.39
2022-08-08T04:07:49.379Z,80.39
2022-08-08T04:10:17.864Z,80.71
2022-08-08T04:12:44.351Z,80.69
2022-08-08T04:15:12.598Z,80.45
2022-08-08T04:17:46.176Z,80.01
2022-08-08T04:20:28.712Z,79.82
2022-08-08T04:22:57.146Z,80.45
2022-08-08T04:25:29.913Z,80.19
2022-08-08T04:28:10.662Z,80.25
2022-08-08T04:30:47.365Z,79.88
2022-08-08T04:33:15.573Z,79.62
2022-08-08T04:35:50.612Z,79.70
2022-08-08T04:38:21.388Z,79.70
2022-08-08T04:40:53.509Z,80.35
2022-08-08T04:43:22.099Z,80.35
2022-08-08T04:45:50.053Z,80.22
2022-08-08T04:48:17.276Z,79.60
2022-08-08T04:50:48.845Z,80.06
2022-08-08T04:54:36.618Z,80.04
2022-08-08T04:56:03.921Z,80.08
2022-08-08T04:58:30.353Z,79.70
2022-08-08T05:00:56.795Z,79.56
2022-08-08T05:04:10.500Z,79.55
2022-08-08T05:06:13.250Z,79.41
2022-08-08T05:08:46.114Z,79.74
2022-08-08T05:11:24.265Z,79.46
2022-08-08T05:13:58.398Z,79.50
2022-08-08T05:16:52.614Z,78.80
2022-08-08T05:20:10.416Z,78.53
2022-08-08T05:22:02.584Z,79.34
2022-08-08T05:24:30.734Z,79.17
2022-08-08T05:26:57.738Z,79.44
2022-08-08T05:29:28.390Z,79.25
2022-08-08T05:32:03.970Z,79.04
2022-08-08T05:34:46.445Z,78.31
2022-08-08T05:37:19.272Z,78.07
2022-08-08T05:39:54.546Z,77.63
2022-08-08T05:42:40.655Z,77.32
2022-08-08T05:45:24.788Z,77.07
2022-08-08T05:48:01.339Z,76.96
2022-08-08T05:50:35.980Z,76.82
2022-08-08T05:53:54.494Z,76.80
2022-08-08T05:56:09.582Z,76.62
2022-08-08T05:58:53.662Z,76.23
2022-08-08T06:01:52.680Z,75.82
2022-08-08T06:04:22.474Z,75.58
2022-08-08T06:06:52.165Z,75.14
2022-08-08T06:09:41.594Z,74.77
2022-08-08T06:12:09.016Z,74.97
2022-08-08T06:14:47.713Z,74.48
2022-08-08T06:17:19.293Z,73.84
2022-08-08T06:19:47.701Z,73.67
2022-08-08T06:25:01.952Z,72.67
2022-08-08T06:27:48.376Z,72.06
2022-08-08T06:30:20.130Z,71.94
2022-08-08T06:33:00.985Z,71.91
2022-08-08T06:36:08.090Z,71.75
2022-08-08T06:38:28.983Z,71.60
2022-08-08T06:41:05.833Z,71.13
2022-08-08T06:43:35.711Z,71.20
2022-08-08T06:46:03.925Z,70.95
2022-08-08T06:48:30.496Z,69.55
2022-08-08T06:50:58.171Z,68.92
2022-08-08T06:53:25.807Z,68.90
2022-08-08T06:56:07.072Z,68.82
2022-08-08T06:58:34.029Z,68.58
2022-08-08T07:01:24.255Z,67.95
2022-08-08T07:04:35.920Z,68.12
2022-08-08T07:06:44.937Z,67.93
2022-08-08T07:09:17.827Z,67.77
2022-08-08T07:11:52.246Z,66.78
2022-08-08T07:14:30.031Z,65.96
2022-08-08T07:17:09.413Z,66.11
2022-08-08T07:19:46.125Z,66.84
2022-08-08T07:22:19.343Z,66.05
2022-08-08T07:24:46.520Z,66.48
2022-08-08T07:27:16.770Z,65.79
2022-08-08T07:30:01.641Z,66.43
2022-08-08T07:32:31.806Z,65.38
2022-08-08T07:35:00.813Z,65.00
2022-08-08T07:37:28.656Z,64.54
2022-08-08T07:40:21.032Z,64.68
2022-08-08T07:42:56.502Z,64.33
2022-08-08T07:45:23.408Z,63.79
2022-08-08T07:47:54.672Z,63.64
2022-08-08T07:50:23.447Z,63.82
2022-08-08T07:52:51.990Z,63.49
2022-08-08T07:55:28.911Z,62.64
2022-08-08T07:58:24.564Z,62.65
2022-08-08T08:00:53.437Z,62.46
2022-08-08T08:03:30.973Z,63.03
2022-08-08T08:06:09.522Z,62.26
2022-08-08T08:08:50.221Z,62.05
2022-08-08T08:11:23.406Z,60.88
2022-08-08T08:14:08.481Z,59.67
2022-08-08T08:16:39.254Z,58.81
2022-08-08T08:19:12.647Z,58.09
2022-08-08T08:21:52.870Z,57.86
2022-08-08T08:24:30.737Z,58.29
2022-08-08T08:26:59.701Z,57.57
2022-08-08T08:29:29.696Z,57.62
2022-08-08T08:31:58.261Z,58.69
2022-08-08T08:34:32.314Z,57.68
2022-08-08T08:37:00.466Z,56.82
2022-08-08T08:40:00.252Z,57.31
2022-08-08T08:42:19.262Z,57.17
2022-08-08T08:44:56.081Z,57.86
2022-08-08T08:47:22.710Z,58.50
2022-08-08T08:49:49.153Z,58.13
2022-08-08T08:52:17.782Z,57.89
2022-08-08T08:54:47.842Z,58.10
2022-08-08T08:57:17.437Z,58.06
2022-08-08T08:59:58.636Z,58.31
2022-08-08T09:02:29.069Z,59.09
2022-08-08T09:04:57.347Z,58.81
2022-08-08T09:07:39.705Z,59.31
2022-08-08T09:10:17.472Z,59.16
2022-08-08T09:12:46.896Z,58.63
2022-08-08T09:15:13.701Z,58.92
2022-08-08T09:17:55.793Z,58.79
2022-08-08T09:22:02.793Z,58.71
2022-08-08T09:23:17.209Z,59.01
2022-08-08T09:26:00.675Z,58.55
2022-08-08T09:28:39.175Z,57.98
2022-08-08T09:31:42.194Z,58.06
2022-08-08T09:34:30.841Z,57.63
2022-08-08T09:37:46.313Z,57.45
2022-08-08T09:40:02.869Z,57.70
2022-08-08T09:42:44.377Z,57.86
2022-08-08T09:45:54.805Z,57.91
2022-08-08T09:48:21.917Z,57.34
2022-08-08T09:50:56.893Z,57.78
2022-08-08T09:53:53.305Z,57.36
2022-08-08T09:56:12.590Z,57.43
2022-08-08T09:59:15.000Z,57.12
2022-08-08T10:01:59.072Z,57.33
2022-08-08T10:04:38.748Z,56.95
2022-08-08T10:07:13.968Z,56.90
2022-08-08T10:09:59.930Z,56.25
2022-08-08T10:12:52.554Z,54.02
2022-08-08T10:15:19.745Z,53.96
2022-08-08T10:18:06.545Z,49.87
2022-08-08T10:20:57.857Z,48.49
2022-08-08T10:23:55.590Z,47.25
2022-08-08T10:26:56.857Z,46.16
2022-08-08T10:29:24.932Z,46.54
2022-08-08T10:32:16.110Z,46.01
2022-08-08T10:34:49.504Z,48.25
2022-08-08T10:37:27.564Z,46.81
2022-08-08T10:39:55.732Z,47.19
2022-08-08T10:42:33.412Z,46.46
2022-08-08T10:45:08.920Z,45.57
2022-08-08T10:47:43.169Z,44.73
2022-08-08T10:50:15.654Z,44.61
2022-08-08T10:52:43.093Z,44.71
2022-08-08T10:55:14.022Z,45.18
2022-08-08T10:57:50.465Z,45.80
2022-08-08T11:00:27.925Z,46.04
2022-08-08T11:02:56.977Z,45.91
2022-08-08T11:05:24.337Z,45.81
2022-08-08T11:08:38.276Z,46.15
2022-08-08T11:10:39.924Z,45.52
2022-08-08T11:13:28.026Z,45.80
2022-08-08T11:16:07.421Z,45.06
2022-08-08T11:18:37.409Z,46.10
2022-08-08T11:21:08.823Z,46.81
2022-08-08T11:23:36.674Z,46.31
2022-08-08T11:26:05.233Z,45.25
2022-08-08T11:28:38.719Z,44.98
2022-08-08T11:31:09.513Z,46.08
2022-08-08T11:33:52.775Z,45.83
2022-08-08T11:36:28.937Z,46.44
2022-08-08T11:38:56.243Z,47.66
2022-08-08T11:41:24.564Z,48.22
2022-08-08T11:43:51.581Z,47.72
2022-08-08T11:46:24.445Z,47.25
2022-08-08T11:48:51.816Z,46.43
2022-08-08T11:51:30.093Z,46.22
2022-08-08T11:54:27.002Z,46.31
2022-08-08T11:56:56.587Z,45.65
2022-08-08T12:00:00.819Z,45.65
2022-08-08T12:02:40.032Z,46.13
2022-08-08T12:05:13.325Z,46.11
2022-08-08T12:07:49.708Z,44.58
2022-08-08T12:10:22.350Z,44.55
2022-08-08T12:12:51.675Z,44.34
2022-08-08T12:15:27.670Z,44.41
2022-08-08T12:17:54.425Z,42.86
2022-08-08T12:20:20.896Z,42.55
2022-08-08T12:22:51.280Z,43.36
2022-08-08T12:25:30.952Z,42.94
2022-08-08T12:28:16.041Z,42.72
2022-08-08T12:30:49.977Z,43.29
2022-08-08T12:33:24.483Z,42.34
2022-08-08T12:36:11.203Z,42.77
2022-08-08T12:38:55.539Z,42.33
2022-08-08T12:41:34.903Z,42.50
2022-08-08T12:44:12.877Z,41.74
2022-08-08T12:46:39.338Z,41.18
2022-08-08T12:49:25.534Z,39.64
2022-08-08T12:51:58.657Z,39.11
2022-08-08T12:54:40.795Z,38.78
2022-08-08T12:57:17.546Z,39.47
2022-08-08T13:00:06.343Z,39.76
2022-08-08T13:02:51.439Z,40.32
2022-08-08T13:05:26.752Z,40.20
2022-08-08T13:08:18.684Z,40.68
2022-08-08T13:10:57.319Z,39.66
2022-08-08T13:13:34.957Z,38.16
2022-08-08T13:16:21.518Z,36.16
2022-08-08T13:18:58.379Z,36.29
2022-08-08T13:21:49.068Z,36.36
2022-08-08T13:24:23.628Z,35.59
2022-08-08T13:27:04.956Z,34.52
2022-08-08T13:29:48.356Z,32.18
2022-08-08T13:32:14.937Z,31.75
2022-08-08T13:34:41.923Z,31.27
2022-08-08T13:37:11.063Z,31.56
2022-08-08T13:39:50.484Z,30.42
2022-08-08T13:42:18.259Z,30.71
2022-08-08T13:44:47.741Z,29.86
2022-08-08T13:47:17.670Z,30.30
2022-08-08T13:50:38.644Z,30.76
2022-08-08T13:52:37.499Z,30.34
2022-08-08T13:55:06.156Z,31.50
2022-08-08T13:58:06.481Z,29.80
2022-08-08T14:00:22.986Z,30.36
2022-08-08T14:03:00.437Z,30.15
2022-08-08T14:05:28.852Z,31.95
2022-08-08T14:08:11.582Z,31.77
2022-08-08T14:10:43.321Z,31.56
2022-08-08T14:13:21.123Z,31.18
2022-08-08T14:16:04.581Z,29.95
2022-08-08T14:18:52.105Z,30.30
2022-08-08T14:21:22.518Z,30.23
2022-08-08T14:24:06.629Z,31.27
2022-08-08T14:26:41.488Z,30.31
2022-08-08T14:29:30.109Z,30.49
2022-08-08T14:32:09.371Z,30.95
2022-08-08T14:34:39.878Z,32.96
2022-08-08T14:37:08.997Z,34.05
2022-08-08T14:40:05.163Z,33.04
2022-08-08T14:42:54.776Z,31.50
2022-08-08T14:45:46.825Z,31.64
2022-08-08T14:48:27.559Z,31.26
2022-08-08T14:51:05.090Z,29.50
2022-08-08T14:53:56.336Z,29.72
2022-08-08T14:56:25.264Z,30.79
2022-08-08T14:58:52.145Z,30.24
2022-08-08T15:01:23.556Z,29.86
2022-08-08T15:03:53.580Z,29.64
2022-08-08T15:06:35.125Z,29.18
2022-08-08T15:09:04.273Z,29.56
2022-08-08T15:11:36.509Z,29.91
2022-08-08T15:14:13.865Z,29.29
2022-08-08T15:16:42.677Z,28.63
2022-08-08T15:19:11.257Z,28.07
2022-08-08T15:21:42.922Z,28.41
2022-08-08T15:24:12.650Z,27.94
2022-08-08T15:26:41.544Z,27.36
2022-08-08T15:29:08.154Z,27.54
2022-08-08T15:32:03.166Z,27.09
2022-08-08T15:34:31.773Z,29.33
2022-08-08T15:36:59.938Z,28.35
2022-08-08T15:39:31.650Z,28.58
2022-08-08T15:42:05.531Z,28.74
2022-08-08T15:44:32.802Z,29.69
2022-08-08T15:46:59.353Z,30.09
2022-08-08T15:49:27.621Z,30.54
2022-08-08T15:51:56.244Z,29.22
2022-08-08T15:54:38.500Z,29.14
2022-08-08T15:57:07.759Z,28.49
2022-08-08T16:00:05.564Z,29.02
2022-08-08T16:02:30.945Z,29.80
2022-08-08T16:04:58.704Z,30.46
2022-08-08T16:07:50.849Z,31.67
2022-08-08T16:13:05.262Z,31.33
2022-08-08T16:13:08.467Z,30.90
2022-08-08T16:15:57.314Z,31.49
2022-08-08T16:18:27.567Z,31.48
2022-08-08T16:21:00.251Z,30.68
2022-08-08T16:23:31.795Z,31.95
2022-08-08T16:26:12.696Z,32.24
2022-08-08T16:28:41.382Z,31.12
2022-08-08T16:31:09.259Z,31.93
2022-08-08T16:33:38.904Z,31.70
2022-08-08T16:36:15.596Z,31.01
2022-08-08T16:38:46.456Z,32.32
2022-08-08T16:41:20.417Z,32.31
2022-08-08T16:43:51.446Z,32.19
2022-08-08T16:46:44.009Z,32.81
2022-08-08T16:49:05.904Z,32.23
2022-08-08T16:55:03.609Z,32.50
2022-08-08T16:55:23.696Z,32.70
2022-08-08T16:57:23.547Z,33.16
2022-08-08T16:59:59.091Z,34.47
2022-08-08T17:02:37.996Z,35.81
2022-08-08T17:05:06.224Z,36.86
2022-08-08T17:07:32.625Z,37.62
2022-08-08T17:09:59.028Z,38.08
2022-08-08T17:12:28.358Z,40.12
2022-08-08T17:14:55.446Z,41.36
2022-08-08T17:17:41.933Z,43.27
2022-08-08T17:20:13.976Z,44.54
2022-08-08T17:22:44.591Z,45.86
2022-08-08T17:25:41.759Z,47.06
2022-08-08T17:28:17.589Z,48.01
2022-08-08T17:30:44.080Z,47.99
2022-08-08T17:34:49.740Z,48.35
2022-08-08T17:36:10.030Z,48.67
2022-08-08T17:38:39.208Z,48.72
2022-08-08T17:41:08.018Z,49.05
2022-08-08T17:44:00.455Z,49.76
2022-08-08T17:46:46.687Z,50.21
2022-08-08T17:49:23.926Z,50.13
2022-08-08T17:51:52.153Z,50.94
2022-08-08T17:54:22.243Z,50.16
2022-08-08T17:56:53.889Z,49.42
2022-08-08T17:59:23.446Z,48.86
2022-08-08T18:01:59.756Z,49.08
2022-08-08T18:04:31.860Z,49.76
2022-08-08T18:07:00.653Z,49.51
2022-08-08T18:09:31.400Z,49.39
2022-08-08T18:12:04.913Z,49.75
2022-08-08T18:14:39.623Z,50.27
2022-08-08T18:17:06.680Z,50.09
2022-08-08T18:20:36.929Z,51.19
2022-08-08T18:22:49.797Z,51.20
2022-08-08T18:25:17.829Z,52.00
2022-08-08T18:27:46.112Z,52.46
2022-08-08T18:30:13.273Z,52.67
2022-08-08T18:32:42.182Z,53.29
2022-08-08T18:35:16.634Z,54.01
2022-08-08T18:37:48.382Z,54.22
2022-08-08T18:40:15.300Z,55.35
2022-08-08T18:42:50.249Z,55.17
2022-08-08T18:46:00.415Z,56.18
2022-08-08T18:48:08.396Z,56.79
2022-08-08T18:50:39.619Z,56.98
2022-08-08T18:53:16.673Z,57.30
2022-08-08T18:55:44.764Z,57.83
2022-08-08T18:58:15.347Z,58.35
2022-08-08T19:00:42.086Z,58.39
2022-08-08T19:03:13.522Z,58.95
2022-08-08T19:05:45.083Z,59.32
2022-08-08T19:08:25.339Z,59.96
2022-08-08T19:11:01.767Z,60.15
2022-08-08T19:13:38.250Z,59.43
2022-08-08T19:16:19.498Z,60.03
2022-08-08T19:18:51.424Z,60.52
2022-08-08T19:21:30.484Z,60.69
2022-08-08T19:23:59.262Z,61.23
2022-08-08T19:26:30.403Z,61.22
2022-08-08T19:28:57.887Z,62.31
2022-08-08T19:31:31.686Z,62.02
2022-08-08T19:34:35.436Z,62.15
2022-08-08T19:36:55.342Z,62.60
2022-08-08T19:39:24.814Z,62.65
2022-08-08T19:41:51.836Z,62.96
2022-08-08T19:44:27.095Z,63.15
2022-08-08T19:47:06.511Z,63.34
2022-08-08T19:49:37.747Z,63.58
2022-08-08T19:52:05.477Z,63.84
2022-08-08T19:54:31.930Z,64.04
2022-08-08T19:56:58.901Z,63.98
2022-08-08T19:59:34.836Z,63.83
2022-08-08T20:02:05.370Z,64.21
2022-08-08T20:04:33.456Z,64.74
2022-08-08T20:07:05.557Z,64.60
2022-08-08T20:09:58.481Z,64.19
2022-08-08T20:12:35.146Z,64.53
2022-08-08T20:15:14.309Z,65.22
2022-08-08T20:17:45.187Z,65.24
2022-08-08T20:20:18.878Z,65.28
2022-08-08T20:22:52.745Z,65.64
2022-08-08T20:25:21.085Z,65.23
2022-08-08T20:27:50.387Z,65.52
2022-08-08T20:30:53.333Z,66.16
2022-08-08T20:33:18.470Z,65.91
2022-08-08T20:35:59.454Z,66.32
2022-08-08T20:38:32.824Z,66.13
2022-08-08T20:41:05.441Z,66.63
2022-08-08T20:43:49.459Z,66.59
2022-08-08T20:46:17.393Z,66.37
2022-08-08T20:48:46.565Z,66.73
2022-08-08T20:51:14.464Z,67.16
2022-08-08T20:53:58.793Z,66.97
2022-08-08T20:56:35.218Z,67.39
2022-08-08T20:59:03.290Z,67.20
2022-08-08T21:01:32.625Z,67.17
2022-08-08T21:04:10.996Z,67.61
2022-08-08T21:06:53.427Z,67.36
2022-08-08T21:09:21.463Z,66.79
2022-08-08T21:11:51.285Z,67.29
2022-08-08T21:14:30.346Z,67.09
2022-08-08T21:17:03.183Z,67.34
2022-08-08T21:19:33.932Z,67.12
2022-08-08T21:22:11.037Z,67.49
2022-08-08T21:24:37.469Z,67.50
2022-08-08T21:27:04.826Z,67.82
2022-08-08T21:30:02.977Z,67.76
2022-08-08T21:32:25.171Z,68.04
2022-08-08T21:34:56.641Z,67.82
2022-08-08T21:37:23.405Z,67.68
2022-08-08T21:40:10.538Z,67.12
2022-08-08T21:42:37.876Z,66.94
2022-08-08T21:45:20.913Z,67.07
2022-08-08T21:48:03.731Z,67.16
2022-08-08T21:50:35.560Z,67.59
2022-08-08T21:54:36.814Z,67.76
2022-08-08T21:56:19.085Z,68.39
2022-08-08T21:58:37.268Z,68.22
2022-08-08T22:01:04.565Z,68.54
2022-08-08T22:03:32.149Z,68.60
2022-08-08T22:06:00.660Z,67.99
2022-08-08T22:08:37.234Z,68.33
2022-08-08T22:11:51.117Z,68.65
2022-08-08T22:13:55.727Z,68.58
2022-08-08T22:16:23.991Z,68.69
2022-08-08T22:18:52.615Z,68.59
2022-08-08T22:21:19.985Z,68.58
2022-08-08T22:23:52.064Z,68.37
2022-08-08T22:26:28.684Z,68.71
2022-08-08T22:29:04.228Z,68.71
2022-08-08T22:31:40.484Z,69.22
2022-08-08T22:34:13.478Z,69.05
2022-08-08T22:36:42.714Z,69.84
2022-08-08T22:39:09.533Z,70.09
2022-08-08T22:41:45.438Z,70.66
2022-08-08T22:44:11.831Z,70.76
2022-08-08T22:46:39.895Z,70.37
2022-08-08T22:49:06.657Z,70.77
2022-08-08T22:51:42.892Z,71.51
2022-08-08T22:54:32.896Z,71.98
2022-08-08T22:56:59.375Z,71.93
2022-08-08T22:59:25.893Z,71.79
2022-08-08T23:02:03.482Z,71.96
2022-08-08T23:04:32.352Z,71.68
2022-08-08T23:07:02.658Z,71.75
2022-08-08T23:09:30.702Z,71.88
2022-08-08T23:12:28.075Z,72.26
2022-08-08T23:14:56.443Z,72.64
2022-08-08T23:17:30.300Z,72.32
2022-08-08T23:19:56.771Z,72.05
2022-08-08T23:22:23.341Z,72.16
2022-08-08T23:24:50.605Z,71.97
2022-08-08T23:27:37.529Z,72.53
2022-08-08T23:30:05.677Z,72.00
2022-08-08T23:32:35.977Z,72.05
2022-08-08T23:35:16.903Z,72.32
2022-08-08T23:38:01.153Z,72.60
2022-08-08T23:40:29.045Z,72.00
2022-08-08T23:42:56.641Z,72.47
2022-08-08T23:49:04.769Z,73.33
2022-08-08T23:49:07.761Z,73.03
2022-08-08T23:50:57.201Z,73.00
2022-08-08T23:54:01.365Z,72.86
2022-08-08T23:56:10.527Z,72.87
2022-08-08T23:58:38.670Z,72.64
